Time;durP1;ratioP1;P1;durP2;ratioP2;P2;SDS_P1;SDS_P2;PMS_P1;PMS_P2;Temp;Humidity;BMP_temperature;BMP_pressure;BME280_temperature;BME280_humidity;BME280_pressure;Samples;Min_cycle;Max_cycle;Signal;HPM_P1;HPM_P2
2021/04/16 00:00:27;;;;;;;15.17;9.77;;;;;;;;;;5036747;28;20458;-96
2021/04/16 00:02:53;;;;;;;10.70;8.40;;;;;;;;;;5045117;28;20470;-96
2021/04/16 00:05:19;;;;;;;10.55;8.50;;;;;;;;;;5046969;28;20223;-96
2021/04/16 00:07:47;;;;;;;10.20;8.03;;;;;;;;;;5039111;28;20301;-96
2021/04/16 00:10:15;;;;;;;11.20;8.85;;;;;;;;;;5023139;28;20559;-96
2021/04/16 00:12:41;;;;;;;14.70;9.20;;;;;;;;;;5030939;28;20208;-96
2021/04/16 00:15:08;;;;;;;13.50;9.90;;;;;;;;;;5037224;28;20470;-96
2021/04/16 00:17:34;;;;;;;13.55;9.90;;;;;;;;;;5032915;28;20431;-96
2021/04/16 00:20:00;;;;;;;13.03;9.90;;;;;;;;;;5053839;28;20218;-96
2021/04/16 00:22:27;;;;;;;14.73;10.13;;;;;;;;;;5048639;28;20458;-96
2021/04/16 00:24:55;;;;;;;14.93;9.07;;;;;;;;;;5040679;28;20482;-96
2021/04/16 00:30:15;;;;;;;11.75;9.07;;;;;;;;;;5017547;28;20234;-96
2021/04/16 00:32:41;;;;;;;14.80;9.25;;;;;;;;;;5034203;28;20284;-96
2021/04/16 00:35:09;;;;;;;13.02;8.98;;;;;;;;;;5046864;28;20214;-96
2021/04/16 00:37:36;;;;;;;10.40;8.32;;;;;;;;;;5037443;28;20221;-96
2021/04/16 00:40:04;;;;;;;14.32;9.48;;;;;;;;;;5027051;28;20629;-96
2021/04/16 00:42:30;;;;;;;14.50;10.65;;;;;;;;;;5027272;28;20212;-96
2021/04/16 00:44:56;;;;;;;13.50;9.90;;;;;;;;;;5039891;28;20217;-96
2021/04/16 00:47:22;;;;;;;13.43;10.40;;;;;;;;;;5038515;28;20214;-96
2021/04/16 00:49:50;;;;;;;14.95;9.55;;;;;;;;;;5042554;28;20593;-96
2021/04/16 00:52:18;;;;;;;13.45;10.27;;;;;;;;;;5037837;28;20224;-96
2021/04/16 00:54:45;;;;;;;13.65;9.25;;;;;;;;;;5038933;28;20200;-96
2021/04/16 00:57:14;;;;;;;10.48;8.95;;;;;;;;;;5053698;28;20210;-96
2021/04/16 00:59:44;;;;;;;11.65;8.55;;;;;;;;;;5036521;28;20207;-96
2021/04/16 01:02:11;;;;;;;10.20;8.07;;;;;;;;;;5041970;28;20215;-96
2021/04/16 01:04:39;;;;;;;10.95;7.30;;;;;;;;;;5042888;28;20188;-96
2021/04/16 01:07:07;;;;;;;11.23;8.02;;;;;;;;;;5031469;28;20218;-96
2021/04/16 01:09:34;;;;;;;11.10;8.50;;;;;;;;;;5031369;28;20290;-96
2021/04/16 01:12:03;;;;;;;7.90;7.03;;;;;;;;;;5035214;28;20229;-96
2021/04/16 01:17:31;;;;;;;11.30;8.27;;;;;;;;;;5025097;28;20215;-96
2021/04/16 01:20:03;;;;;;;12.25;8.77;;;;;;;;;;5033984;28;20248;-96
2021/04/16 01:25:18;;;;;;;10.68;8.82;;;;;;;;;;5044614;28;20249;-96
2021/04/16 01:27:49;;;;;;;14.90;9.45;;;;;;;;;;5053150;28;20204;-96
2021/04/16 01:35:44;;;;;;;13.15;8.65;;;;;;;;;;5045234;28;20238;-96
2021/04/16 01:44:28;;;;;;;14.55;8.50;;;;;;;;;;5049597;28;20231;-96
2021/04/16 01:56:04;;;;;;;16.35;10.00;;;;;;;;;;5025223;28;20322;-96
2021/04/16 02:01:27;;;;;;;12.85;9.05;;;;;;;;;;5030373;28;20195;-96
2021/04/16 02:03:53;;;;;;;17.00;9.93;;;;;;;;;;5026897;28;20205;-95
2021/04/16 02:06:19;;;;;;;13.23;9.68;;;;;;;;;;5029131;28;20203;-96
2021/04/16 02:08:45;;;;;;;18.77;11.07;;;;;;;;;;5008730;28;20215;-96
2021/04/16 02:11:11;;;;;;;19.77;11.05;;;;;;;;;;5023410;28;20260;-95
2021/04/16 02:13:38;;;;;;;18.43;10.60;;;;;;;;;;5025518;28;20226;-96
2021/04/16 02:16:05;;;;;;;13.90;9.23;;;;;;;;;;5028553;28;20494;-96
2021/04/16 02:18:44;;;;;;;14.00;8.32;;;;;;;;;;5033187;28;20214;-96
2021/04/16 02:21:10;;;;;;;12.10;9.30;;;;;;;;;;5022469;28;20209;-96
2021/04/16 02:23:37;;;;;;;12.45;9.48;;;;;;;;;;5026930;28;20202;-96
2021/04/16 02:26:03;;;;;;;19.10;9.65;;;;;;;;;;5027426;28;20200;-96
2021/04/16 02:28:29;;;;;;;19.00;10.73;;;;;;;;;;5030599;28;20228;-96
2021/04/16 02:30:55;;;;;;;15.63;11.00;;;;;;;;;;5026335;28;20305;-96
2021/04/16 02:33:22;;;;;;;16.65;12.00;;;;;;;;;;5027095;28;20224;-96
2021/04/16 02:38:37;;;;;;;21.23;11.20;;;;;;;;;;5031928;28;20211;-96
2021/04/16 02:41:05;;;;;;;16.10;10.50;;;;;;;;;;5036526;28;20246;-96
2021/04/16 02:43:31;;;;;;;17.90;10.77;;;;;;;;;;5035175;28;20197;-96
2021/04/16 02:46:01;;;;;;;15.18;10.65;;;;;;;;;;5025705;28;20213;-96
2021/04/16 03:02:03;;;;;;;17.92;11.32;;;;;;;;;;5046649;28;20273;-96
2021/04/16 03:15:36;;;;;;;16.90;10.48;;;;;;;;;;5123793;23;20304;-96
2021/04/16 03:18:04;;;;;;;16.92;10.90;;;;;;;;;;5037200;28;20257;-96
2021/04/16 03:20:30;;;;;;;11.73;9.25;;;;;;;;;;5037292;28;20289;-97
2021/04/16 03:22:59;;;;;;;16.77;10.50;;;;;;;;;;5037156;28;20197;-96
2021/04/16 03:28:00;;;;;;;13.50;10.13;;;;;;;;;;5381767;23;20243;-96
2021/04/16 03:30:28;;;;;;;19.77;12.45;;;;;;;;;;5030445;28;20239;-96
2021/04/16 03:32:54;;;;;;;16.38;11.23;;;;;;;;;;5059101;28;20207;-93
2021/04/16 03:35:22;;;;;;;16.95;11.55;;;;;;;;;;5058715;28;20196;-92
2021/04/16 03:37:51;;;;;;;16.20;11.40;;;;;;;;;;5058957;28;20181;-92
2021/04/16 03:40:18;;;;;;;16.55;12.13;;;;;;;;;;5042176;28;20181;-96
2021/04/16 03:42:45;;;;;;;16.17;11.45;;;;;;;;;;5057767;28;20200;-96
2021/04/16 03:45:13;;;;;;;20.85;13.60;;;;;;;;;;5057322;28;20219;-96
2021/04/16 03:53:50;;;;;;;21.55;12.68;;;;;;;;;;5820545;23;20258;-96
2021/04/16 03:56:18;;;;;;;22.05;12.52;;;;;;;;;;5042349;28;20219;-96
2021/04/16 04:01:49;;;;;;;14.40;11.18;;;;;;;;;;5655882;22;20241;-96
2021/04/16 04:04:16;;;;;;;16.45;10.50;;;;;;;;;;5034510;28;20659;-96
2021/04/16 04:29:03;;;;;;;19.90;14.52;;;;;;;;;;5399486;23;20255;-96
2021/04/16 04:31:30;;;;;;;26.52;13.15;;;;;;;;;;5061466;28;20226;-96
2021/04/16 04:33:56;;;;;;;18.23;13.13;;;;;;;;;;5044129;28;20244;-96
2021/04/16 04:36:22;;;;;;;17.75;13.30;;;;;;;;;;5061393;28;20215;-96
2021/04/16 04:41:24;;;;;;;22.48;12.95;;;;;;;;;;5255796;22;20231;-96
2021/04/16 04:43:50;;;;;;;21.20;14.35;;;;;;;;;;5055319;28;20199;-96
2021/04/16 04:46:17;;;;;;;21.30;14.48;;;;;;;;;;5055197;28;20184;-96
2021/04/16 04:48:47;;;;;;;20.50;13.38;;;;;;;;;;5057444;28;20200;-96
2021/04/16 04:51:13;;;;;;;21.20;13.40;;;;;;;;;;5057365;28;20235;-96
2021/04/16 04:53:39;;;;;;;20.95;13.77;;;;;;;;;;5041501;28;20185;-96
2021/04/16 04:56:06;;;;;;;19.95;14.10;;;;;;;;;;5060006;28;20186;-96
2021/04/16 05:15:00;;;;;;;29.17;16.83;;;;;;;;;;5070014;28;20223;-96
2021/04/16 05:17:27;;;;;;;28.63;16.83;;;;;;;;;;5074444;28;20261;-96
2021/04/16 05:19:54;;;;;;;42.05;27.30;;;;;;;;;;5055944;28;20213;-96
2021/04/16 05:22:20;;;;;;;47.78;33.72;;;;;;;;;;5074761;28;20200;-96
2021/04/16 05:24:47;;;;;;;47.22;37.50;;;;;;;;;;5076096;28;20271;-95
2021/04/16 05:27:22;;;;;;;47.40;36.08;;;;;;;;;;5077309;28;20224;-96
2021/04/16 05:29:49;;;;;;;38.65;29.85;;;;;;;;;;5080706;28;20233;-96
2021/04/16 05:32:17;;;;;;;32.75;23.00;;;;;;;;;;5059530;28;20199;-96
2021/04/16 05:34:45;;;;;;;34.17;21.95;;;;;;;;;;5061516;28;20655;-96
2021/04/16 05:37:11;;;;;;;32.63;21.77;;;;;;;;;;5067121;28;20207;-96
2021/04/16 05:39:37;;;;;;;40.13;24.70;;;;;;;;;;5071103;28;20226;-96
2021/04/16 05:42:04;;;;;;;42.53;29.30;;;;;;;;;;5063268;28;20203;-96
2021/04/16 05:44:30;;;;;;;40.90;29.10;;;;;;;;;;5062103;28;20212;-96
2021/04/16 05:46:56;;;;;;;45.93;31.10;;;;;;;;;;5046910;28;20463;-96
2021/04/16 05:49:25;;;;;;;39.87;28.60;;;;;;;;;;5064746;28;20470;-96
2021/04/16 05:51:51;;;;;;;38.20;28.97;;;;;;;;;;5050566;28;20479;-96
2021/04/16 05:54:17;;;;;;;45.40;31.00;;;;;;;;;;5059678;28;20457;-96
2021/04/16 05:56:43;;;;;;;43.50;28.70;;;;;;;;;;5060611;28;20440;-96
2021/04/16 05:59:09;;;;;;;41.90;24.80;;;;;;;;;;5061561;28;20512;-96
2021/04/16 06:01:35;;;;;;;32.60;25.63;;;;;;;;;;5061504;28;20458;-95
2021/04/16 06:04:02;;;;;;;33.80;23.07;;;;;;;;;;5061512;28;20439;-96
2021/04/16 06:06:29;;;;;;;25.80;21.13;;;;;;;;;;5060324;28;20449;-96
2021/04/16 06:08:56;;;;;;;29.77;22.37;;;;;;;;;;5063731;28;20443;-96
2021/04/16 06:11:26;;;;;;;24.70;16.00;;;;;;;;;;5064612;28;20481;-96
2021/04/16 06:16:55;;;;;;;19.47;14.60;;;;;;;;;;5066732;28;20440;-96
2021/04/16 06:19:21;;;;;;;21.50;15.73;;;;;;;;;;5060019;28;20419;-96
2021/04/16 06:21:48;;;;;;;15.17;12.00;;;;;;;;;;5055459;28;20458;-96
2021/04/16 06:37:47;;;;;;;17.23;13.90;;;;;;;;;;3508996;23;20485;-94
2021/04/16 06:40:13;;;;;;;20.03;14.37;;;;;;;;;;5068805;28;20452;-94
2021/04/16 06:42:40;;;;;;;17.70;14.07;;;;;;;;;;5045990;28;20450;-95
2021/04/16 06:45:09;;;;;;;26.20;13.60;;;;;;;;;;5063233;28;20449;-96
2021/04/16 06:47:37;;;;;;;16.70;12.50;;;;;;;;;;5064217;28;20465;-96
2021/04/16 06:50:04;;;;;;;19.67;12.97;;;;;;;;;;5068557;28;20477;-95
2021/04/16 06:52:33;;;;;;;17.07;13.33;;;;;;;;;;5062226;28;20461;-96
2021/04/16 06:55:04;;;;;;;20.30;13.47;;;;;;;;;;5065834;28;20446;-96
2021/04/16 06:57:38;;;;;;;15.23;12.90;;;;;;;;;;5065596;28;20492;-96
2021/04/16 07:00:08;;;;;;;16.47;12.57;;;;;;;;;;5065963;28;20454;-96
2021/04/16 07:02:38;;;;;;;14.80;11.80;;;;;;;;;;5067212;28;20453;-96
2021/04/16 07:05:10;;;;;;;21.40;12.53;;;;;;;;;;5064391;28;20450;-96
2021/04/16 07:07:39;;;;;;;17.67;12.67;;;;;;;;;;5067104;28;20461;-96
2021/04/16 07:10:09;;;;;;;17.47;12.70;;;;;;;;;;5058805;28;20482;-96
2021/04/16 07:12:35;;;;;;;15.23;11.73;;;;;;;;;;5065440;28;20450;-96
2021/04/16 07:15:03;;;;;;;17.77;11.60;;;;;;;;;;5066693;28;20446;-95
2021/04/16 07:17:33;;;;;;;20.43;11.70;;;;;;;;;;5070252;28;20922;-96
2021/04/16 07:20:00;;;;;;;17.93;10.50;;;;;;;;;;5067467;28;20438;-96
2021/04/16 07:22:28;;;;;;;15.60;10.00;;;;;;;;;;5070665;28;20453;-96
2021/04/16 07:27:49;;;;;;;16.67;10.47;;;;;;;;;;5125633;23;20525;-96
2021/04/16 07:30:32;;;;;;;11.13;9.60;;;;;;;;;;5185112;22;20473;-96
2021/04/16 07:33:10;;;;;;;16.17;9.47;;;;;;;;;;5060810;23;20506;-96
2021/04/16 07:35:36;;;;;;;13.60;9.30;;;;;;;;;;5055795;28;20434;-95
2021/04/16 07:38:04;;;;;;;14.87;9.20;;;;;;;;;;5057419;28;20450;-94
2021/04/16 07:40:31;;;;;;;9.10;8.20;;;;;;;;;;5054969;28;20443;-96
2021/04/16 07:43:00;;;;;;;12.07;8.60;;;;;;;;;;5055725;28;20454;-96
2021/04/16 07:45:48;;;;;;;14.30;8.40;;;;;;;;;;5046476;28;20460;-94
2021/04/16 07:48:29;;;;;;;11.70;8.67;;;;;;;;;;5041965;28;20467;-95
2021/04/16 07:50:57;;;;;;;13.83;8.23;;;;;;;;;;5035667;28;20514;-96
2021/04/16 07:53:27;;;;;;;12.13;8.27;;;;;;;;;;5050312;28;20430;-94
2021/04/16 07:56:08;;;;;;;13.03;8.20;;;;;;;;;;5053533;28;20448;-96
2021/04/16 07:58:47;;;;;;;10.93;7.33;;;;;;;;;;5041877;28;20447;-96
2021/04/16 08:01:29;;;;;;;10.47;7.63;;;;;;;;;;5059675;28;20503;-96
2021/04/16 08:03:58;;;;;;;11.40;6.97;;;;;;;;;;5047311;28;20479;-96
2021/04/16 08:06:28;;;;;;;10.23;6.17;;;;;;;;;;5051222;28;20443;-96
2021/04/16 08:08:54;;;;;;;9.13;8.10;;;;;;;;;;5052130;28;20444;-96
2021/04/16 08:11:24;;;;;;;12.67;8.10;;;;;;;;;;5048039;28;20494;-96
2021/04/16 08:13:59;;;;;;;13.40;8.77;;;;;;;;;;5048421;28;20518;-96
2021/04/16 08:16:29;;;;;;;14.37;7.90;;;;;;;;;;5044444;28;20515;-96
2021/04/16 08:19:03;;;;;;;7.47;6.10;;;;;;;;;;5047211;28;20463;-96
2021/04/16 08:21:32;;;;;;;6.60;5.60;;;;;;;;;;5030235;28;20454;-94
2021/04/16 08:24:00;;;;;;;9.60;6.00;;;;;;;;;;5039592;28;20455;-96
2021/04/16 08:26:28;;;;;;;8.63;6.40;;;;;;;;;;5050896;28;20457;-96
2021/04/16 08:28:57;;;;;;;8.53;5.80;;;;;;;;;;5047719;28;20456;-96
2021/04/16 08:31:28;;;;;;;8.40;6.03;;;;;;;;;;5046966;28;20501;-96
2021/04/16 08:33:57;;;;;;;10.87;6.50;;;;;;;;;;5039322;28;20488;-95
2021/04/16 08:36:26;;;;;;;9.40;6.67;;;;;;;;;;5006359;28;20442;-95
2021/04/16 08:38:55;;;;;;;9.53;6.37;;;;;;;;;;5036219;28;20443;-96
2021/04/16 08:41:21;;;;;;;6.60;5.80;;;;;;;;;;5013550;28;20454;-95
2021/04/16 08:43:51;;;;;;;9.47;4.97;;;;;;;;;;5016881;28;21147;-96
2021/04/16 08:46:22;;;;;;;5.70;5.10;;;;;;;;;;5036846;28;20963;-96
2021/04/16 08:48:58;;;;;;;6.43;4.83;;;;;;;;;;5037037;28;20443;-96
2021/04/16 08:51:26;;;;;;;5.57;5.00;;;;;;;;;;5046111;28;20493;-96
2021/04/16 08:53:58;;;;;;;6.10;4.57;;;;;;;;;;5039035;28;20452;-96
2021/04/16 08:56:26;;;;;;;11.13;5.07;;;;;;;;;;5038546;28;20447;-96
2021/04/16 08:58:53;;;;;;;6.23;4.53;;;;;;;;;;5030023;28;20444;-96
2021/04/16 09:01:21;;;;;;;5.97;4.90;;;;;;;;;;5040570;28;20436;-96
2021/04/16 09:03:49;;;;;;;8.83;3.97;;;;;;;;;;5040583;28;20487;-96
2021/04/16 09:06:21;;;;;;;4.17;3.37;;;;;;;;;;5029550;28;20503;-96
2021/04/16 09:08:48;;;;;;;6.57;4.50;;;;;;;;;;5040840;28;21006;-93
2021/04/16 09:11:35;;;;;;;6.67;3.80;;;;;;;;;;5044101;28;20486;-96
2021/04/16 09:14:01;;;;;;;5.40;3.97;;;;;;;;;;5026069;28;20458;-96
2021/04/16 09:16:45;;;;;;;6.90;4.17;;;;;;;;;;5032561;28;20958;-96
2021/04/16 09:19:38;;;;;;;4.90;3.97;;;;;;;;;;5024984;28;20480;-95
2021/04/16 09:22:22;;;;;;;6.10;4.13;;;;;;;;;;5005361;28;20451;-95
2021/04/16 09:24:50;;;;;;;3.67;3.30;;;;;;;;;;5047012;28;20450;-93
2021/04/16 09:27:17;;;;;;;6.47;3.63;;;;;;;;;;5028040;28;20465;-96
2021/04/16 09:29:44;;;;;;;6.20;3.90;;;;;;;;;;5036786;28;20943;-96
2021/04/16 09:32:29;;;;;;;4.83;3.80;;;;;;;;;;5035480;28;20442;-96
2021/04/16 09:34:55;;;;;;;4.50;4.10;;;;;;;;;;5031003;28;20471;-95
2021/04/16 09:37:28;;;;;;;6.17;3.70;;;;;;;;;;5025370;28;20823;-94
2021/04/16 09:40:12;;;;;;;4.73;3.47;;;;;;;;;;5024841;28;20478;-95
2021/04/16 09:42:39;;;;;;;6.50;4.47;;;;;;;;;;5013596;28;20460;-95
2021/04/16 09:45:08;;;;;;;6.20;4.27;;;;;;;;;;5027909;28;20479;-94
2021/04/16 09:47:45;;;;;;;8.67;4.00;;;;;;;;;;5026308;28;21800;-93
2021/04/16 09:50:29;;;;;;;4.23;3.43;;;;;;;;;;5028520;28;20479;-96
2021/04/16 09:53:17;;;;;;;3.90;3.40;;;;;;;;;;5023238;28;20448;-94
2021/04/16 09:55:49;;;;;;;4.97;3.30;;;;;;;;;;5015953;28;21007;-96
2021/04/16 09:58:30;;;;;;;6.00;4.13;;;;;;;;;;5009768;28;20467;-96
2021/04/16 10:01:06;;;;;;;4.37;3.87;;;;;;;;;;5029404;28;20458;-95
2021/04/16 10:03:40;;;;;;;5.50;3.90;;;;;;;;;;5021692;28;20478;-96
2021/04/16 10:06:32;;;;;;;9.37;3.17;;;;;;;;;;5027548;28;20436;-95
2021/04/16 10:09:03;;;;;;;5.43;4.33;;;;;;;;;;5010835;28;20456;-94
2021/04/16 10:11:30;;;;;;;5.90;3.80;;;;;;;;;;5015592;28;20500;-96
2021/04/16 10:14:11;;;;;;;5.70;4.40;;;;;;;;;;5014271;28;20476;-95
2021/04/16 10:16:38;;;;;;;4.13;3.73;;;;;;;;;;5019755;28;20452;-94
2021/04/16 10:19:10;;;;;;;4.33;3.93;;;;;;;;;;5019421;28;20452;-95
2021/04/16 10:21:38;;;;;;;6.10;4.47;;;;;;;;;;5021463;28;20460;-96
2021/04/16 10:24:50;;;;;;;5.97;4.40;;;;;;;;;;5019757;28;20476;-94
2021/04/16 12:38:45;;;;;;;6.27;4.90;;;;;;;;;;5078749;28;20420;-96
2021/04/16 12:41:13;;;;;;;5.87;4.30;;;;;;;;;;5075527;28;20468;-95
2021/04/16 12:43:50;;;;;;;12.57;6.73;;;;;;;;;;5073409;28;20462;-96
2021/04/16 12:46:20;;;;;;;5.40;4.80;;;;;;;;;;5071577;28;20460;-96
2021/04/16 12:48:50;;;;;;;5.43;4.47;;;;;;;;;;5070239;28;20451;-95
2021/04/16 12:51:19;;;;;;;8.70;4.70;;;;;;;;;;5069346;28;20554;-96
2021/04/16 12:53:47;;;;;;;4.87;4.00;;;;;;;;;;5069329;28;20461;-96
2021/04/16 12:56:16;;;;;;;7.30;4.50;;;;;;;;;;5066171;28;20486;-96
2021/04/16 12:58:43;;;;;;;5.43;4.93;;;;;;;;;;5045742;28;20470;-95
2021/04/16 13:01:12;;;;;;;4.80;4.40;;;;;;;;;;5064454;28;20568;-95
2021/04/16 13:03:39;;;;;;;4.87;4.40;;;;;;;;;;5049736;28;20512;-96
2021/04/16 13:06:08;;;;;;;5.10;4.13;;;;;;;;;;5061934;28;20819;-96
2021/04/16 13:08:34;;;;;;;5.00;4.50;;;;;;;;;;5062695;28;20468;-96
2021/04/16 13:11:00;;;;;;;4.93;4.53;;;;;;;;;;5063759;28;20848;-96
2021/04/16 13:13:26;;;;;;;5.13;4.37;;;;;;;;;;5060462;28;20450;-95
2021/04/16 13:15:56;;;;;;;5.60;4.33;;;;;;;;;;5060855;28;20440;-94
2021/04/16 13:18:27;;;;;;;5.30;4.57;;;;;;;;;;5059438;28;20455;-96
2021/04/16 13:20:53;;;;;;;5.27;4.77;;;;;;;;;;5059872;28;20453;-96
2021/04/16 13:23:22;;;;;;;5.80;4.83;;;;;;;;;;5059212;28;20465;-96
2021/04/16 13:25:48;;;;;;;5.43;3.93;;;;;;;;;;5059063;28;20478;-96
2021/04/16 13:28:14;;;;;;;4.63;4.23;;;;;;;;;;5058685;28;20442;-95
2021/04/16 13:30:41;;;;;;;5.13;4.23;;;;;;;;;;5059211;28;20491;-96
2021/04/16 13:33:12;;;;;;;5.10;4.70;;;;;;;;;;5062717;28;20422;-96
2021/04/16 13:38:35;;;;;;;7.13;4.37;;;;;;;;;;5113118;22;20480;-96
2021/04/16 13:41:02;;;;;;;5.63;4.37;;;;;;;;;;5153432;22;20482;-96
2021/04/16 13:43:29;;;;;;;4.50;4.10;;;;;;;;;;5054409;28;20481;-95
2021/04/16 13:45:56;;;;;;;5.53;5.03;;;;;;;;;;5054550;28;20450;-96
2021/04/16 13:48:30;;;;;;;5.90;4.60;;;;;;;;;;5054762;28;20445;-96
2021/04/16 13:50:56;;;;;;;6.70;4.10;;;;;;;;;;5055338;28;20493;-96
2021/04/16 13:53:22;;;;;;;4.83;4.23;;;;;;;;;;5052922;28;20516;-95
2021/04/16 13:55:48;;;;;;;6.70;4.63;;;;;;;;;;5051979;28;20458;-95
2021/04/16 13:58:14;;;;;;;4.83;4.30;;;;;;;;;;5053004;28;20446;-96
2021/04/16 14:00:40;;;;;;;5.50;4.50;;;;;;;;;;5044845;28;20450;-96
2021/04/16 14:03:12;;;;;;;7.33;4.80;;;;;;;;;;5050968;28;20449;-95
2021/04/16 14:05:38;;;;;;;6.97;5.03;;;;;;;;;;5049315;28;20459;-95
2021/04/16 14:08:05;;;;;;;6.30;4.97;;;;;;;;;;5048869;28;20455;-95
2021/04/16 14:10:32;;;;;;;5.03;4.53;;;;;;;;;;5070624;23;21082;-94
2021/04/16 14:12:59;;;;;;;5.33;4.90;;;;;;;;;;5054281;28;20452;-95
2021/04/16 14:15:25;;;;;;;5.23;4.73;;;;;;;;;;5061370;28;20470;-96
2021/04/16 14:17:53;;;;;;;9.40;4.77;;;;;;;;;;5064379;28;20450;-96
2021/04/16 14:20:29;;;;;;;9.60;4.90;;;;;;;;;;5068842;28;20458;-96
2021/04/16 14:22:56;;;;;;;4.83;4.43;;;;;;;;;;5173425;23;20485;-96
2021/04/16 14:25:25;;;;;;;5.17;4.70;;;;;;;;;;5050777;28;20458;-96
2021/04/16 14:30:40;;;;;;;7.80;5.23;;;;;;;;;;5200434;22;20561;-96
2021/04/16 14:33:08;;;;;;;9.73;5.97;;;;;;;;;;5033181;28;20459;-96
2021/04/16 14:35:35;;;;;;;6.50;4.70;;;;;;;;;;5028689;28;20452;-96
2021/04/16 14:40:32;;;;;;;5.40;4.90;;;;;;;;;;5731802;23;20584;-96
2021/04/16 14:42:59;;;;;;;8.63;4.90;;;;;;;;;;5069841;28;20204;-96
2021/04/16 14:45:26;;;;;;;6.77;4.90;;;;;;;;;;5071369;28;20434;-96
2021/04/16 14:47:56;;;;;;;8.00;5.10;;;;;;;;;;5068868;28;20472;-96
2021/04/16 14:50:22;;;;;;;6.30;5.03;;;;;;;;;;5070820;28;20430;-96
2021/04/16 14:52:50;;;;;;;5.03;4.50;;;;;;;;;;5070772;28;20812;-96
2021/04/16 14:55:18;;;;;;;7.93;4.70;;;;;;;;;;5145243;22;20550;-96
2021/04/16 14:58:06;;;;;;;6.87;4.23;;;;;;;;;;5074852;28;20424;-96
2021/04/16 15:03:31;;;;;;;6.03;4.47;;;;;;;;;;5071037;28;20485;-96
2021/04/16 15:06:14;;;;;;;5.13;4.33;;;;;;;;;;5067836;23;20493;-96
2021/04/16 15:08:45;;;;;;;5.77;4.57;;;;;;;;;;5126618;22;20478;-96
2021/04/16 15:11:13;;;;;;;5.20;4.80;;;;;;;;;;5170891;22;20474;-96
2021/04/16 15:13:44;;;;;;;4.93;4.43;;;;;;;;;;5048163;28;20455;-96
2021/04/16 15:16:29;;;;;;;5.83;5.00;;;;;;;;;;5114733;23;20489;-96
2021/04/16 15:21:43;;;;;;;5.40;4.90;;;;;;;;;;5153839;22;20483;-96
2021/04/16 15:24:10;;;;;;;10.80;4.90;;;;;;;;;;5155406;22;20685;-95
2021/04/16 15:26:37;;;;;;;6.90;5.23;;;;;;;;;;5090268;28;20472;-94
2021/04/16 15:29:05;;;;;;;6.27;4.83;;;;;;;;;;5090802;28;20458;-96
2021/04/16 15:31:34;;;;;;;6.23;4.80;;;;;;;;;;5082533;28;20937;-96
2021/04/16 15:47:57;;;;;;;6.00;5.40;;;;;;;;;;5045330;28;20447;-94
2021/04/16 15:50:25;;;;;;;7.63;4.37;;;;;;;;;;5045077;28;20461;-94
2021/04/16 15:52:51;;;;;;;6.43;5.27;;;;;;;;;;5044660;28;20459;-96
2021/04/16 15:55:18;;;;;;;5.33;4.53;;;;;;;;;;5045495;28;21655;-95
2021/04/16 15:57:44;;;;;;;6.47;5.00;;;;;;;;;;5042846;28;20454;-94
2021/04/16 16:00:13;;;;;;;5.37;4.57;;;;;;;;;;5037676;28;20443;-96
2021/04/16 16:02:39;;;;;;;7.07;5.03;;;;;;;;;;5035423;28;20996;-95
2021/04/16 16:05:05;;;;;;;6.10;4.77;;;;;;;;;;5038022;28;20455;-95
2021/04/16 16:07:31;;;;;;;6.93;5.70;;;;;;;;;;5032977;28;21197;-92
2021/04/16 16:09:58;;;;;;;9.20;6.13;;;;;;;;;;5035905;28;20443;-92
2021/04/16 16:12:25;;;;;;;7.93;6.00;;;;;;;;;;5037574;28;21262;-95
2021/04/16 16:14:53;;;;;;;8.60;6.20;;;;;;;;;;5043304;28;20880;-93
2021/04/16 16:17:21;;;;;;;7.73;6.20;;;;;;;;;;5043946;28;20482;-94
2021/04/16 16:19:47;;;;;;;10.73;6.10;;;;;;;;;;5043447;28;20455;-92
2021/04/16 16:22:13;;;;;;;8.07;6.27;;;;;;;;;;5043250;28;20447;-92
2021/04/16 16:24:40;;;;;;;8.77;6.60;;;;;;;;;;5044128;28;20454;-92
2021/04/16 16:27:07;;;;;;;10.20;6.50;;;;;;;;;;5043840;28;20455;-93
2021/04/16 16:29:37;;;;;;;10.43;7.47;;;;;;;;;;5043600;28;20451;-95
2021/04/16 16:32:04;;;;;;;13.60;7.83;;;;;;;;;;5044438;28;20490;-93
2021/04/16 16:34:30;;;;;;;13.43;7.70;;;;;;;;;;5043367;28;21006;-94
2021/04/16 16:36:57;;;;;;;9.70;6.87;;;;;;;;;;5037930;28;20490;-94
2021/04/16 16:39:23;;;;;;;8.20;6.90;;;;;;;;;;5040115;28;20447;-95
2021/04/16 16:41:49;;;;;;;7.10;5.90;;;;;;;;;;5041088;28;20458;-94
2021/04/16 16:44:18;;;;;;;7.63;4.90;;;;;;;;;;5041842;28;20481;-93
2021/04/16 16:46:45;;;;;;;8.10;5.57;;;;;;;;;;5043033;28;20450;-93
2021/04/16 16:49:11;;;;;;;9.33;5.73;;;;;;;;;;5042113;28;20450;-91
2021/04/16 16:51:37;;;;;;;9.93;7.33;;;;;;;;;;5033570;28;20524;-94
2021/04/16 16:54:04;;;;;;;7.73;6.60;;;;;;;;;;5039447;28;20466;-94
2021/04/16 16:56:31;;;;;;;12.60;7.57;;;;;;;;;;5039929;28;20463;-94
2021/04/16 16:58:57;;;;;;;12.03;7.23;;;;;;;;;;5040866;28;20451;-94
2021/04/16 17:01:24;;;;;;;16.20;8.37;;;;;;;;;;5035671;28;20456;-95
2021/04/16 17:03:52;;;;;;;10.60;8.10;;;;;;;;;;5041653;28;20971;-94
2021/04/16 17:06:18;;;;;;;13.37;9.40;;;;;;;;;;5041138;28;20443;-93
2021/04/16 17:08:45;;;;;;;10.00;8.20;;;;;;;;;;5042656;28;20454;-93
2021/04/16 17:11:11;;;;;;;12.93;8.83;;;;;;;;;;5041427;28;20494;-93
2021/04/16 17:13:38;;;;;;;19.23;11.10;;;;;;;;;;5039972;28;20474;-94
2021/04/16 17:16:05;;;;;;;11.90;9.60;;;;;;;;;;5042899;28;20459;-94
2021/04/16 17:18:31;;;;;;;16.23;9.97;;;;;;;;;;5042281;28;20814;-93
2021/04/16 17:20:59;;;;;;;18.00;11.70;;;;;;;;;;5041764;28;20462;-94
2021/04/16 17:23:25;;;;;;;16.87;11.40;;;;;;;;;;5041854;28;20447;-93
2021/04/16 17:25:51;;;;;;;15.73;11.13;;;;;;;;;;5039679;28;20455;-95
2021/04/16 17:28:20;;;;;;;20.17;13.47;;;;;;;;;;5039647;28;20462;-93
2021/04/16 17:30:46;;;;;;;21.47;12.87;;;;;;;;;;5041984;28;20858;-94
2021/04/16 17:33:13;;;;;;;14.03;9.60;;;;;;;;;;5042425;28;20812;-94
2021/04/16 17:35:40;;;;;;;14.20;9.40;;;;;;;;;;5042007;28;20544;-94
2021/04/16 17:38:07;;;;;;;12.20;10.53;;;;;;;;;;5031900;28;20462;-94
2021/04/16 17:40:33;;;;;;;12.23;8.87;;;;;;;;;;5040214;28;20454;-94
2021/04/16 17:43:02;;;;;;;12.30;8.83;;;;;;;;;;5040612;28;20469;-94
2021/04/16 17:45:30;;;;;;;13.30;9.57;;;;;;;;;;5040049;28;20446;-93
2021/04/16 17:47:57;;;;;;;10.37;7.67;;;;;;;;;;5039189;28;20454;-93
2021/04/16 17:50:24;;;;;;;11.40;7.57;;;;;;;;;;5039626;28;21103;-93
2021/04/16 17:52:50;;;;;;;15.70;8.27;;;;;;;;;;5034409;28;20459;-93
2021/04/16 17:55:18;;;;;;;13.70;8.97;;;;;;;;;;5039598;28;20459;-93
2021/04/16 17:57:44;;;;;;;14.03;9.40;;;;;;;;;;5038688;28;20447;-92
2021/04/16 18:00:11;;;;;;;14.03;9.63;;;;;;;;;;5041780;28;20439;-93
2021/04/16 18:02:37;;;;;;;12.63;8.80;;;;;;;;;;5045329;28;20465;-93
2021/04/16 18:05:03;;;;;;;11.90;9.13;;;;;;;;;;5043742;28;20466;-94
2021/04/16 18:07:30;;;;;;;14.00;9.60;;;;;;;;;;5039228;28;20482;-93
2021/04/16 18:09:57;;;;;;;15.33;10.00;;;;;;;;;;5036943;28;20458;-94
2021/04/16 18:12:24;;;;;;;13.80;9.57;;;;;;;;;;5045468;28;20959;-94
2021/04/16 18:14:50;;;;;;;11.80;9.87;;;;;;;;;;5043028;28;20443;-94
2021/04/16 18:17:16;;;;;;;13.37;9.70;;;;;;;;;;5023449;28;20460;-93
2021/04/16 18:19:42;;;;;;;12.10;7.97;;;;;;;;;;5043528;28;20453;-93
2021/04/16 18:22:18;;;;;;;10.97;8.20;;;;;;;;;;5041676;28;20861;-94
2021/04/16 18:24:44;;;;;;;13.10;7.57;;;;;;;;;;5035876;28;20465;-92
2021/04/16 18:27:12;;;;;;;10.30;8.30;;;;;;;;;;5043362;28;20438;-93
2021/04/16 18:29:38;;;;;;;14.57;9.13;;;;;;;;;;5043351;28;20470;-92
2021/04/16 18:32:05;;;;;;;9.43;7.97;;;;;;;;;;5039278;28;20491;-94
2021/04/16 18:34:31;;;;;;;11.27;8.83;;;;;;;;;;5041050;28;21357;-94
2021/04/16 18:36:57;;;;;;;10.03;8.07;;;;;;;;;;5041201;28;20460;-93
2021/04/16 18:39:26;;;;;;;11.10;9.07;;;;;;;;;;5040695;28;20566;-94
2021/04/16 18:41:52;;;;;;;13.37;9.93;;;;;;;;;;5040495;28;20447;-93
2021/04/16 18:44:21;;;;;;;12.33;8.73;;;;;;;;;;5039700;28;20444;-93
2021/04/16 18:46:48;;;;;;;11.23;9.10;;;;;;;;;;5031277;28;20447;-93
2021/04/16 18:49:14;;;;;;;13.33;9.10;;;;;;;;;;5045564;28;20462;-92
2021/04/16 18:51:44;;;;;;;11.80;8.83;;;;;;;;;;5047160;28;20485;-92
2021/04/16 18:54:12;;;;;;;9.33;7.70;;;;;;;;;;5051572;28;20455;-92
2021/04/16 18:56:39;;;;;;;10.70;8.30;;;;;;;;;;5041751;28;20458;-93
2021/04/16 18:59:05;;;;;;;11.23;8.80;;;;;;;;;;5039145;28;20449;-94
2021/04/16 19:01:33;;;;;;;10.53;9.10;;;;;;;;;;5047436;28;20519;-95
2021/04/16 19:04:00;;;;;;;9.70;8.00;;;;;;;;;;5040922;28;20521;-94
2021/04/16 19:06:28;;;;;;;12.40;8.00;;;;;;;;;;5039792;28;20451;-95
2021/04/16 19:08:55;;;;;;;14.73;9.10;;;;;;;;;;5040264;28;20456;-94
2021/04/16 19:11:21;;;;;;;11.10;7.50;;;;;;;;;;5037150;28;20487;-95
2021/04/16 19:13:47;;;;;;;9.13;7.67;;;;;;;;;;5041035;28;20469;-95
2021/04/16 19:16:13;;;;;;;9.60;7.20;;;;;;;;;;5044778;28;20446;-96
2021/04/16 19:18:39;;;;;;;8.63;7.23;;;;;;;;;;5046001;28;20457;-96
2021/04/16 19:21:07;;;;;;;11.30;7.57;;;;;;;;;;5045901;28;20434;-95
2021/04/16 19:23:34;;;;;;;8.40;7.10;;;;;;;;;;5040951;28;20449;-96
2021/04/16 19:26:03;;;;;;;11.20;8.03;;;;;;;;;;5043037;28;20460;-94
2021/04/16 19:28:30;;;;;;;11.13;8.23;;;;;;;;;;5044846;28;20449;-95
2021/04/16 19:31:25;;;;;;;14.70;8.57;;;;;;;;;;5055153;28;20452;-96